createdAt,value
2023-04-15T00:04:50.087Z,8.03
2023-04-15T00:14:53.382Z,6.40
2023-04-15T00:24:57.791Z,5.90
2023-04-15T00:35:01.080Z,8.87
2023-04-15T00:45:07.205Z,6.03
2023-04-15T00:55:11.804Z,7.43
2023-04-15T01:05:18.765Z,6.40
2023-04-15T01:15:22.619Z,6.20
2023-04-15T01:25:33.484Z,5.77
2023-04-15T01:35:36.590Z,4.73
2023-04-15T01:45:41.139Z,3.97
2023-04-15T01:55:44.493Z,5.93
2023-04-15T02:05:52.386Z,5.00
2023-04-15T02:15:56.439Z,5.07
2023-04-15T02:26:01.171Z,5.57
2023-04-15T02:36:08.063Z,5.03
2023-04-15T02:46:14.924Z,8.73
2023-04-15T02:56:19.576Z,7.10
2023-04-15T03:06:24.894Z,4.40
2023-04-15T03:16:28.206Z,6.83
2023-04-15T03:26:33.499Z,7.77
2023-04-15T03:36:41.321Z,5.60
2023-04-15T03:46:45.888Z,2.37
2023-04-15T03:56:49.122Z,4.87
2023-04-15T04:06:53.608Z,4.50
2023-04-15T04:16:56.833Z,3.17
2023-04-15T04:27:01.364Z,7.97
2023-04-15T04:37:04.455Z,6.30
2023-04-15T04:47:08.898Z,5.60
2023-04-15T04:57:13.726Z,8.07
2023-04-15T05:07:18.053Z,7.27
2023-04-15T05:17:21.165Z,3.70
2023-04-15T05:27:25.787Z,5.67
2023-04-15T05:37:29.655Z,4.80
2023-04-15T05:47:33.906Z,6.63
2023-04-15T05:57:37.558Z,11.80
2023-04-15T06:07:44.419Z,4.57
2023-04-15T06:17:48.456Z,8.13
2023-04-15T06:27:52.680Z,8.20
2023-04-15T06:37:55.851Z,8.77
2023-04-15T06:48:00.727Z,9.57
2023-04-15T06:58:03.885Z,8.97
2023-04-15T07:08:08.354Z,9.90
2023-04-15T07:18:12.440Z,10.83
2023-04-15T07:28:16.853Z,7.60
2023-04-15T07:38:19.998Z,7.93
2023-04-15T07:48:24.338Z,8.10
2023-04-15T07:58:27.573Z,8.87
2023-04-15T08:08:32.305Z,8.80
2023-04-15T08:18:35.190Z,8.93
2023-04-15T08:28:41.171Z,12.23
2023-04-15T08:38:45.717Z,10.90
2023-04-15T08:48:50.976Z,14.80
2023-04-15T08:58:54.651Z,13.17
2023-04-15T09:08:59.528Z,10.97
2023-04-15T09:19:22.450Z,13.23
2023-04-15T09:29:27.058Z,7.23
2023-04-15T09:39:47.279Z,2.83
2023-04-15T09:49:58.571Z,1.93
2023-04-15T10:00:02.470Z,1.47
2023-04-15T10:10:09.651Z,2.57
2023-04-15T10:20:14.651Z,1.97
2023-04-15T10:30:19.633Z,3.97
2023-04-15T10:40:31.705Z,2.67
2023-04-15T10:50:36.121Z,2.13
2023-04-15T11:00:40.072Z,3.13
2023-04-15T11:10:57.391Z,2.87
2023-04-15T11:21:03.609Z,4.30
2023-04-15T11:31:12.646Z,2.60
2023-04-15T11:41:15.948Z,5.43
2023-04-15T11:51:22.128Z,3.40
2023-04-15T12:01:32.849Z,4.40
2023-04-15T12:11:43.624Z,3.47
2023-04-15T12:21:48.752Z,2.50
2023-04-15T12:31:54.695Z,3.90
2023-04-15T12:42:18.087Z,2.33
2023-04-15T12:52:22.307Z,3.20
2023-04-15T13:02:28.591Z,5.17
2023-04-15T13:12:36.557Z,15.27
2023-04-15T13:22:39.963Z,3.73
2023-04-15T13:32:44.495Z,4.27
2023-04-15T13:42:47.627Z,5.50
2023-04-15T13:52:52.071Z,6.27
2023-04-15T14:02:55.077Z,4.20
2023-04-15T14:12:59.426Z,6.27
2023-04-15T14:23:02.439Z,5.50
2023-04-15T14:33:06.957Z,5.90
2023-04-15T14:43:10.110Z,5.90
2023-04-15T14:53:14.549Z,7.90
2023-04-15T15:03:19.611Z,12.13
2023-04-15T15:13:24.188Z,10.87
2023-04-15T15:23:27.202Z,12.63
2023-04-15T15:33:32.157Z,17.87
2023-04-15T15:43:35.412Z,15.60
2023-04-15T15:53:39.830Z,9.97
2023-04-15T16:03:43.113Z,12.50
2023-04-15T16:13:47.651Z,11.00
2023-04-15T16:23:50.698Z,9.67
2023-04-15T16:33:55.303Z,7.50
2023-04-15T16:43:59.088Z,9.30
2023-04-15T16:54:03.463Z,9.17
2023-04-15T17:04:06.792Z,14.00
2023-04-15T17:14:11.518Z,12.63
2023-04-15T17:24:14.588Z,13.30
2023-04-15T17:34:19.042Z,13.33
2023-04-15T17:44:25.185Z,9.57
2023-04-15T17:54:29.625Z,8.50
2023-04-15T18:04:33.559Z,10.30
2023-04-15T18:14:37.989Z,10.03
2023-04-15T18:24:41.194Z,6.73
2023-04-15T18:34:45.498Z,7.87
2023-04-15T18:44:48.543Z,5.60
2023-04-15T18:54:53.033Z,10.47
2023-04-15T19:04:55.946Z,5.37
2023-04-15T19:15:00.129Z,6.17
2023-04-15T19:25:02.869Z,10.10
2023-04-15T19:35:10.016Z,12.73
2023-04-15T19:45:14.546Z,10.35
2023-04-15T19:55:19.464Z,8.00
2023-04-15T20:05:22.543Z,14.47
2023-04-15T20:15:27.386Z,9.23
2023-04-15T20:25:30.555Z,7.00
2023-04-15T20:35:34.905Z,10.00
2023-04-15T20:45:37.941Z,6.50
2023-04-15T20:55:43.685Z,10.37
2023-04-15T21:05:50.669Z,8.40
2023-04-15T21:15:55.405Z,10.30
2023-04-15T21:25:59.802Z,11.90
2023-04-15T21:36:04.371Z,13.57
2023-04-15T21:46:24.452Z,16.57
2023-04-15T21:56:29.885Z,13.13
2023-04-15T22:06:32.917Z,11.87
2023-04-15T22:16:37.241Z,7.37
2023-04-15T22:26:40.355Z,9.40
2023-04-15T22:36:44.501Z,7.93
2023-04-15T22:46:47.569Z,14.07
2023-04-15T22:56:52.371Z,12.43
2023-04-15T23:06:55.198Z,15.90
2023-04-15T23:17:00.020Z,23.80
2023-04-15T23:27:03.054Z,21.17
2023-04-15T23:37:08.085Z,25.77
2023-04-15T23:58:33.466Z,22.57
